Afton, Tennessee
Current Conditions -  °F | °C
As of 8:08 AM on Saturday 25 Oct 2014 (Local Time) from KTRI Reporting Station
Moderate Fog Moderate Fog  
Wind Chill:   Ceiling: 100
Heat Index:   Visibility: 0.5mi
Dew Point:   Wind: 0mph
Humidity: 96%   Direction: NA
Pressure: 30.11"   Gusts: NA
Location:  36.19°N, 82.74°W
Report Text: KTRI 251208Z 00000KT 1/2SM FG BKN001 01/01 A3011 RMK AO2 TWR VIS 1 T00110006
Loading
Personal Weather Stations






























Interactive Weather Map
Tropical Storm Tracking
New forecast layout! Learn more

10-Day Weather Forecast

Advertisements
Track Severe Weather on mobile